27VA weather

Prince William Hospital Heliport
Manassas, Virginia, United States

Public forecast

Using degrees Fahrenheit for public forecast. Weather courtesy of forecast.io.

METAR (pilot weather report)

Closest report is Manassas Regional Airport/Harry P. Davis Field, 3.0 nm (5.5 km) SSW. Retrieved 2019/05/21 03:56 UTC (38 minutes ago):

KHEF 210356Z AUTO 33010KT 10SM CLR 21/12 A2989 RMK AO2 SLP130 T02110122 403220211 PNO $

TAF (pilot weather forecast)

Forecast is more than 12 hours old.

Closest forecast is Washington Dulles International Airport, 10.8 nm (20.1 km) N. Retrieved 2019/05/20 00:39 UTC (1 day ago):

TAF KIAD 202336Z 2100/2206 30008KT P6SM SKC FM211200 33013G18KT P6SM FEW150 FM211600 33010KT P6SM FEW150 FM220300 35005KT P6SM FEW110